Time;durP1;ratioP1;P1;durP2;ratioP2;P2;SDS_P1;SDS_P2;PMS_P1;PMS_P2;Temp;Humidity;BMP_temperature;BMP_pressure;BME280_temperature;BME280_humidity;BME280_pressure;Samples;Min_cycle;Max_cycle;Signal;HPM_P1;HPM_P2
2022/05/19 00:02:20;;;;;;;14.15;8.25;;;;;;;19.10;57.27;101816.78;5204948;28;20869;-46
2022/05/19 00:04:53;;;;;;;14.80;8.82;;;;;;;19.01;57.40;101796.47;5216534;28;20475;-48
2022/05/19 00:07:26;;;;;;;14.85;8.82;;;;;;;19.07;57.42;101798.41;5199554;28;20512;-50
2022/05/19 00:09:58;;;;;;;13.35;7.75;;;;;;;19.12;57.28;101798.72;5197594;28;20497;-51
2022/05/19 00:12:32;;;;;;;13.20;8.27;;;;;;;19.06;57.48;101800.25;5212245;28;20508;-53
2022/05/19 00:15:07;;;;;;;13.95;9.40;;;;;;;19.01;57.45;101796.47;5216457;28;20420;-54
2022/05/19 00:17:40;;;;;;;12.60;9.27;;;;;;;19.05;57.53;101797.78;5211964;28;20472;-54
2022/05/19 00:20:13;;;;;;;12.38;9.45;;;;;;;19.05;57.66;101806.63;5217952;28;20451;-57
2022/05/19 00:22:48;;;;;;;16.80;9.43;;;;;;;19.07;57.64;101795.72;5210862;28;20431;-49
2022/05/19 00:25:20;;;;;;;15.63;9.10;;;;;;;19.06;57.71;101800.25;5215187;28;20897;-54
2022/05/19 00:27:54;;;;;;;15.57;9.68;;;;;;;19.07;57.70;101790.38;5214588;28;20445;-51
2022/05/19 00:30:27;;;;;;;14.57;9.93;;;;;;;18.91;57.83;101786.00;5212921;28;20447;-52
2022/05/19 00:32:59;;;;;;;17.17;10.48;;;;;;;19.05;57.75;101781.72;5209107;28;20494;-51
2022/05/19 00:35:32;;;;;;;17.70;10.05;;;;;;;19.14;57.83;101791.34;5215685;28;20423;-48
2022/05/19 00:38:05;;;;;;;18.17;10.40;;;;;;;19.08;57.86;101778.69;5213001;28;20785;-52
2022/05/19 00:40:38;;;;;;;15.00;10.60;;;;;;;19.08;57.89;101781.34;5212664;28;20764;-49
2022/05/19 00:43:12;;;;;;;20.73;10.77;;;;;;;19.09;57.99;101783.00;5202317;28;20417;-50
2022/05/19 00:45:57;;;;;;;17.73;11.18;;;;;;;19.12;58.11;101788.81;5210314;28;20432;-51
2022/05/19 00:48:41;;;;;;;16.63;11.35;;;;;;;19.15;58.09;101782.28;5213664;28;20460;-50
2022/05/19 00:51:18;;;;;;;18.95;11.05;;;;;;;19.20;58.09;101760.28;5203532;28;24614;-49
2022/05/19 00:53:55;;;;;;;17.58;12.15;;;;;;;19.23;57.98;101760.78;5202573;28;20501;-52
2022/05/19 00:56:31;;;;;;;19.60;11.68;;;;;;;19.23;58.17;101758.09;5195490;28;20760;-52
2022/05/19 00:59:09;;;;;;;18.05;11.98;;;;;;;19.17;58.16;101750.81;5196490;28;22013;-50
2022/05/19 01:01:45;;;;;;;18.98;12.15;;;;;;;19.24;58.31;101765.09;5202902;28;20552;-50
2022/05/19 01:04:25;;;;;;;17.70;13.15;;;;;;;19.28;58.35;101763.72;5198757;28;20421;-50
2022/05/19 01:07:04;;;;;;;15.40;11.25;;;;;;;19.22;58.38;101753.75;5204649;28;20472;-52
2022/05/19 01:09:38;;;;;;;20.15;12.45;;;;;;;19.38;58.32;101763.44;5204498;28;20453;-52
2022/05/19 01:12:11;;;;;;;13.32;11.20;;;;;;;19.42;58.32;101750.50;5203379;28;20475;-50
2022/05/19 01:14:45;;;;;;;20.58;12.48;;;;;;;19.47;58.27;101748.09;5202253;28;20460;-43
2022/05/19 01:17:18;;;;;;;19.45;13.23;;;;;;;19.50;58.30;101753.91;5203242;28;20492;-50
2022/05/19 01:19:58;;;;;;;20.05;13.07;;;;;;;19.55;58.61;101746.16;5205671;28;20490;-49
2022/05/19 01:22:41;;;;;;;19.90;13.05;;;;;;;19.47;58.26;101719.44;5203524;28;20425;-53
2022/05/19 01:25:26;;;;;;;18.55;12.95;;;;;;;19.61;58.13;101736.53;5190335;28;20421;-53
2022/05/19 01:28:01;;;;;;;21.63;12.90;;;;;;;19.64;58.05;101738.03;5204648;28;20534;-51
2022/05/19 01:30:33;;;;;;;18.48;12.73;;;;;;;19.59;58.32;101719.81;5203619;28;20422;-54
2022/05/19 01:33:07;;;;;;;21.63;13.57;;;;;;;19.33;58.18;101683.66;5195058;28;20818;-52
2022/05/19 01:35:39;;;;;;;22.98;14.65;;;;;;;19.45;58.27;101696.53;5195500;28;20524;-52
2022/05/19 01:38:18;;;;;;;21.73;13.73;;;;;;;19.41;58.50;101704.13;5200303;28;20449;-53
2022/05/19 01:41:08;;;;;;;19.10;14.17;;;;;;;19.51;58.51;101715.41;5193166;28;20528;-51
2022/05/19 01:43:56;;;;;;;22.17;14.82;;;;;;;19.49;58.54;101706.72;5203325;28;20447;-50
2022/05/19 01:46:33;;;;;;;22.08;14.27;;;;;;;19.44;58.63;101694.88;5200975;28;20437;-52
2022/05/19 01:49:14;;;;;;;23.08;15.55;;;;;;;19.42;58.72;101691.56;5192685;28;20813;-51
2022/05/19 01:51:53;;;;;;;25.30;15.47;;;;;;;19.33;58.77;101682.81;5203532;28;20527;-48
2022/05/19 01:54:34;;;;;;;21.93;15.40;;;;;;;19.41;58.91;101673.84;5210295;28;21165;-49
2022/05/19 01:57:12;;;;;;;20.17;14.60;;;;;;;19.11;58.93;101631.88;5206037;28;20473;-48
2022/05/19 01:59:54;;;;;;;21.50;15.40;;;;;;;19.46;58.88;101682.16;5208890;28;20427;-49
2022/05/19 02:02:37;;;;;;;21.88;16.02;;;;;;;19.43;59.08;101685.19;5215315;28;20522;-49
2022/05/19 02:05:20;;;;;;;27.13;14.63;;;;;;;19.27;59.02;101668.31;5208453;28;20774;-51
2022/05/19 02:07:58;;;;;;;28.05;16.80;;;;;;;19.33;59.08;101670.25;5209755;28;20449;-49
2022/05/19 02:10:33;;;;;;;22.63;14.63;;;;;;;19.06;59.11;101633.44;5214578;28;20561;-49
2022/05/19 02:13:06;;;;;;;23.90;15.30;;;;;;;19.47;59.29;101691.84;5218146;28;20400;-53
2022/05/19 02:15:46;;;;;;;26.70;15.52;;;;;;;19.33;59.12;101656.84;5212111;28;20957;-49
2022/05/19 02:18:24;;;;;;;28.48;16.83;;;;;;;19.49;59.16;101671.06;5215482;28;20400;-51
2022/05/19 02:21:00;;;;;;;25.50;16.20;;;;;;;19.49;59.39;101677.25;5210560;28;20440;-52
2022/05/19 02:23:33;;;;;;;26.88;17.05;;;;;;;19.43;59.29;101666.44;5210608;28;20436;-51
2022/05/19 02:26:06;;;;;;;24.05;15.75;;;;;;;19.24;59.45;101668.69;5209005;28;20542;-52
2022/05/19 02:28:42;;;;;;;24.70;16.07;;;;;;;19.47;59.62;101665.88;5213347;28;20409;-53
2022/05/19 02:31:17;;;;;;;21.60;16.87;;;;;;;19.31;59.52;101631.28;5209537;28;20409;-50
2022/05/19 02:33:50;;;;;;;19.42;15.52;;;;;;;19.46;59.57;101666.91;5210639;28;20501;-49
2022/05/19 02:36:22;;;;;;;26.52;16.88;;;;;;;19.46;59.57;101661.53;5216186;28;20753;-48
2022/05/19 02:38:55;;;;;;;23.05;16.67;;;;;;;19.48;59.48;101659.50;5218597;28;20429;-51
2022/05/19 02:41:27;;;;;;;26.55;17.15;;;;;;;19.52;59.82;101665.31;5213295;28;20843;-52
2022/05/19 02:44:00;;;;;;;24.08;17.55;;;;;;;19.49;59.68;101658.47;5204766;28;20403;-52
2022/05/19 02:46:34;;;;;;;26.15;17.88;;;;;;;19.55;59.78;101665.78;5215040;28;20427;-48
2022/05/19 02:49:06;;;;;;;25.75;16.85;;;;;;;19.51;59.66;101658.28;5212929;28;20406;-53
2022/05/19 02:51:39;;;;;;;30.90;18.65;;;;;;;19.47;60.02;101646.28;5214761;28;20965;-52
2022/05/19 02:54:11;;;;;;;24.00;17.10;;;;;;;19.56;59.98;101672.78;5213126;28;20477;-51
2022/05/19 02:56:44;;;;;;;24.67;16.83;;;;;;;19.40;60.03;101656.09;5212204;28;20466;-51
2022/05/19 02:59:16;;;;;;;26.95;17.58;;;;;;;19.61;59.98;101720.47;5210767;28;20439;-51
2022/05/19 03:02:18;;;;;;;24.05;18.33;;;;;;;19.66;60.13;101746.72;5214162;28;20532;-50
2022/05/19 03:04:51;;;;;;;24.50;17.15;;;;;;;19.66;60.08;101752.91;5211113;28;20558;-50
2022/05/19 03:07:24;;;;;;;29.00;16.23;;;;;;;19.62;60.21;101758.81;5213456;28;20919;-53
2022/05/19 03:09:56;;;;;;;29.35;18.85;;;;;;;19.65;60.12;101778.03;5222834;28;20427;-56
2022/05/19 03:12:29;;;;;;;42.72;24.55;;;;;;;19.78;60.11;101785.41;5222592;28;20475;-52
2022/05/19 03:15:02;;;;;;;44.63;25.17;;;;;;;19.86;59.86;101776.44;5196173;28;20424;-48
2022/05/19 03:17:36;;;;;;;41.05;24.70;;;;;;;19.90;60.09;101786.59;5213588;28;21769;-53
2022/05/19 03:20:10;;;;;;;41.50;23.90;;;;;;;19.93;59.97;101782.72;5207528;28;20439;-51
2022/05/19 03:22:45;;;;;;;38.28;23.77;;;;;;;19.84;59.99;101771.25;5203706;28;20488;-48
2022/05/19 03:25:18;;;;;;;28.23;20.00;;;;;;;19.94;60.08;101777.16;5211391;28;20469;-50
2022/05/19 03:27:50;;;;;;;36.70;23.00;;;;;;;19.97;60.28;101794.72;5211292;28;20532;-48
2022/05/19 03:30:23;;;;;;;31.95;20.02;;;;;;;19.92;60.31;101789.09;5217209;28;20439;-53
2022/05/19 03:32:57;;;;;;;29.13;19.53;;;;;;;19.93;60.48;101780.84;5210169;28;20999;-53
2022/05/19 03:35:30;;;;;;;22.75;15.27;;;;;;;19.98;60.57;101793.72;5221817;28;20444;-51
2022/05/19 03:38:02;;;;;;;19.90;14.10;;;;;;;19.92;60.57;101783.75;5213969;28;20512;-48
2022/05/19 03:40:35;;;;;;;22.60;15.25;;;;;;;20.03;60.41;101804.69;5213645;28;20544;-51
2022/05/19 03:43:07;;;;;;;24.35;16.13;;;;;;;20.06;60.36;101822.25;5212058;28;20437;-49
2022/05/19 03:45:40;;;;;;;24.42;14.95;;;;;;;20.08;60.13;101841.69;5213595;28;20498;-48
2022/05/19 03:48:17;;;;;;;32.92;16.75;;;;;;;19.95;59.81;101810.19;5216592;28;20417;-49
2022/05/19 03:50:50;;;;;;;24.65;16.98;;;;;;;20.09;59.92;101844.16;5207630;28;20501;-48
2022/05/19 03:53:22;;;;;;;28.27;17.58;;;;;;;20.15;59.95;101854.13;5216505;28;20475;-51
2022/05/19 03:56:20;;;;;;;27.10;17.00;;;;;;;20.12;59.92;101862.56;5212738;28;20477;-53
2022/05/19 03:58:53;;;;;;;27.45;16.42;;;;;;;20.06;60.22;101865.16;5210612;28;20430;-51
2022/05/19 04:01:26;;;;;;;26.67;16.75;;;;;;;20.05;60.05;101891.16;5206882;28;20450;-47
2022/05/19 04:04:00;;;;;;;22.70;14.18;;;;;;;19.93;60.32;101889.94;5201096;28;20531;-47
2022/05/19 04:06:34;;;;;;;27.33;15.07;;;;;;;19.95;60.23;101895.97;5212695;28;20571;-47
2022/05/19 04:09:07;;;;;;;24.58;14.13;;;;;;;19.94;60.44;101911.19;5206681;28;20490;-49
2022/05/19 04:11:39;;;;;;;28.05;14.18;;;;;;;19.91;60.55;101913.44;5212999;28;20409;-50
2022/05/19 04:14:12;;;;;;;20.63;12.93;;;;;;;19.88;60.56;101913.78;5213141;28;20404;-52
2022/05/19 04:16:44;;;;;;;16.63;10.35;;;;;;;19.85;60.91;101922.22;5214952;28;20409;-50
2022/05/19 04:19:18;;;;;;;15.38;9.55;;;;;;;19.84;60.96;101931.28;5211190;28;20395;-52
2022/05/19 04:21:52;;;;;;;17.05;9.63;;;;;;;19.78;61.06;101912.22;5216494;28;20465;-51
2022/05/19 04:24:28;;;;;;;15.38;9.43;;;;;;;19.81;60.90;101911.84;5216082;28;20426;-49
2022/05/19 04:27:03;;;;;;;18.52;10.52;;;;;;;19.73;60.84;101906.59;5206463;28;20668;-49
2022/05/19 04:29:35;;;;;;;15.77;10.67;;;;;;;19.72;60.77;101872.75;5213195;28;20574;-50
2022/05/19 04:32:08;;;;;;;20.13;10.60;;;;;;;19.81;60.91;101884.22;5215938;28;20467;-51
2022/05/19 04:34:42;;;;;;;18.57;11.77;;;;;;;19.84;60.79;101874.97;5213255;28;20891;-53
2022/05/19 04:37:15;;;;;;;19.25;11.65;;;;;;;19.89;61.07;101845.78;5206032;28;20500;-49
2022/05/19 04:39:47;;;;;;;22.85;13.88;;;;;;;19.89;60.88;101835.88;5215052;28;20409;-49
2022/05/19 04:42:20;;;;;;;18.60;12.55;;;;;;;19.84;60.73;101813.31;5210807;28;20832;-50
2022/05/19 04:44:55;;;;;;;23.65;13.43;;;;;;;19.98;60.83;101823.22;5211517;28;20430;-49
2022/05/19 04:47:28;;;;;;;21.05;14.00;;;;;;;20.03;60.66;101823.44;5214299;28;20419;-49
2022/05/19 04:50:02;;;;;;;24.30;14.82;;;;;;;20.07;60.61;101814.03;5211709;28;20416;-52
2022/05/19 04:52:35;;;;;;;22.55;14.52;;;;;;;20.09;60.86;101811.97;5213017;28;20409;-48
2022/05/19 04:55:12;;;;;;;24.65;14.77;;;;;;;20.03;60.89;101807.38;5212804;28;20404;-52
2022/05/19 04:57:46;;;;;;;20.77;14.57;;;;;;;20.10;60.94;101797.56;5212693;28;20995;-47
2022/05/19 05:00:19;;;;;;;22.83;16.15;;;;;;;19.92;61.00;101762.28;5211383;28;20900;-49
2022/05/19 05:03:06;;;;;;;23.30;16.50;;;;;;;20.09;61.11;101795.88;5214900;28;20436;-49
2022/05/19 05:05:40;;;;;;;31.90;17.73;;;;;;;20.07;61.36;101792.59;5214412;28;20474;-48
2022/05/19 05:08:12;;;;;;;30.58;18.55;;;;;;;19.97;61.35;101784.81;5210517;28;20505;-48
2022/05/19 05:10:45;;;;;;;30.63;20.13;;;;;;;19.78;61.39;101755.94;5212000;28;20492;-50
2022/05/19 05:13:18;;;;;;;31.85;19.45;;;;;;;19.86;61.97;101768.41;5209455;28;20471;-47
2022/05/19 05:15:50;;;;;;;34.20;21.25;;;;;;;19.92;61.74;101784.56;5212247;28;20410;-46
2022/05/19 05:18:23;;;;;;;33.60;21.40;;;;;;;19.99;61.80;101785.47;5210982;28;20883;-52
2022/05/19 05:20:57;;;;;;;31.93;20.67;;;;;;;19.99;61.77;101787.31;5205886;28;20921;-52
2022/05/19 05:23:29;;;;;;;29.80;21.50;;;;;;;19.96;61.92;101785.00;5206206;28;20432;-54
2022/05/19 05:26:25;;;;;;;35.72;21.13;;;;;;;19.97;62.10;101770.59;5205292;28;20486;-52
2022/05/19 05:28:58;;;;;;;39.38;21.60;;;;;;;19.95;62.37;101768.09;5200450;28;20424;-49
2022/05/19 05:31:31;;;;;;;33.75;21.90;;;;;;;19.89;62.38;101758.13;5203963;28;20912;-49
2022/05/19 05:34:03;;;;;;;36.78;21.20;;;;;;;19.93;62.50;101762.09;5206051;28;20888;-50
2022/05/19 05:36:37;;;;;;;32.20;21.75;;;;;;;19.94;62.54;101744.16;5204182;28;20420;-51
2022/05/19 05:39:10;;;;;;;38.40;22.67;;;;;;;19.79;62.53;101699.47;5205741;28;20424;-51
2022/05/19 05:41:42;;;;;;;36.17;22.00;;;;;;;19.96;62.78;101709.94;5193807;28;20409;-52
2022/05/19 05:44:16;;;;;;;35.65;22.30;;;;;;;19.86;62.69;101682.63;5201402;28;20445;-47
2022/05/19 05:46:48;;;;;;;26.25;21.50;;;;;;;20.02;62.62;101693.91;5196705;28;20521;-48
2022/05/19 05:49:21;;;;;;;41.92;23.42;;;;;;;20.15;62.41;101697.75;5201431;28;20416;-52
2022/05/19 05:51:55;;;;;;;32.85;21.92;;;;;;;20.30;62.56;101700.38;5203534;28;20425;-49
2022/05/19 05:54:28;;;;;;;31.42;22.33;;;;;;;20.34;62.47;101696.25;5203347;28;20432;-50
2022/05/19 05:57:01;;;;;;;31.52;22.27;;;;;;;20.42;62.56;101722.97;5201571;28;20500;-49
2022/05/19 05:59:33;;;;;;;33.78;22.80;;;;;;;20.44;62.35;101691.38;5199316;28;20428;-52
2022/05/19 06:02:07;;;;;;;37.67;24.30;;;;;;;20.43;62.33;101679.00;5201600;28;20770;-52
2022/05/19 06:04:39;;;;;;;39.17;24.63;;;;;;;20.64;62.43;101700.47;5204238;28;20417;-51
2022/05/19 06:07:13;;;;;;;41.78;25.83;;;;;;;20.59;62.49;101692.16;5202303;28;20435;-50
2022/05/19 06:09:46;;;;;;;38.13;25.88;;;;;;;20.65;62.67;101702.13;5204572;28;20613;-49
2022/05/19 06:12:18;;;;;;;36.25;24.63;;;;;;;20.73;62.82;101712.72;5207339;28;20493;-57
2022/05/19 06:14:53;;;;;;;41.08;25.85;;;;;;;20.71;62.90;101706.69;5207030;28;20516;-53
2022/05/19 06:17:26;;;;;;;32.13;23.55;;;;;;;20.76;62.80;101714.19;5207319;28;20404;-50
2022/05/19 06:19:58;;;;;;;30.83;23.40;;;;;;;20.87;63.00;101713.66;5213797;28;20963;-52
2022/05/19 06:22:32;;;;;;;28.50;20.77;;;;;;;20.90;62.99;101696.28;5207343;28;20443;-49
2022/05/19 06:25:06;;;;;;;27.75;21.05;;;;;;;21.00;62.92;101704.84;5200178;28;23451;-52
2022/05/19 06:27:39;;;;;;;34.72;22.73;;;;;;;21.01;62.71;101703.81;5201628;28;20421;-50
2022/05/19 06:30:14;;;;;;;29.45;20.23;;;;;;;20.75;62.95;101644.56;5207230;28;20436;-50
2022/05/19 06:32:48;;;;;;;24.83;19.45;;;;;;;21.15;62.89;101704.69;5203670;28;20790;-52
2022/05/19 06:35:25;;;;;;;27.00;20.40;;;;;;;21.24;62.78;101713.44;5204202;28;20411;-50
2022/05/19 06:37:59;;;;;;;28.13;19.05;;;;;;;21.26;62.93;101695.25;5199612;28;21386;-52
2022/05/19 06:40:34;;;;;;;26.52;18.70;;;;;;;21.27;62.98;101710.34;5208139;28;20982;-52
2022/05/19 06:43:11;;;;;;;25.58;19.63;;;;;;;21.31;62.81;101720.50;5204642;28;20448;-51
2022/05/19 06:45:44;;;;;;;24.55;17.65;;;;;;;21.34;62.76;101720.09;5209484;28;20876;-51
2022/05/19 06:48:16;;;;;;;20.23;16.23;;;;;;;21.41;62.63;101728.22;5203634;28;20411;-52
2022/05/19 06:50:49;;;;;;;25.67;18.02;;;;;;;21.38;62.45;101726.75;5205469;28;21216;-48
2022/05/19 06:53:23;;;;;;;22.52;17.88;;;;;;;21.52;62.54;101745.63;5205944;28;20419;-50
2022/05/19 06:55:55;;;;;;;23.13;18.27;;;;;;;21.61;62.31;101752.50;5209194;28;20922;-49
2022/05/19 06:58:28;;;;;;;22.77;17.08;;;;;;;21.67;62.20;101756.25;5206939;28;20960;-50
2022/05/19 07:01:02;;;;;;;24.13;17.20;;;;;;;21.70;62.31;101766.59;5207881;28;20828;-49
2022/05/19 07:03:35;;;;;;;28.48;18.77;;;;;;;21.72;62.26;101751.94;5207147;28;20425;-52
2022/05/19 07:06:07;;;;;;;27.95;19.70;;;;;;;21.80;62.14;101746.38;5207653;28;20924;-52
2022/05/19 07:08:41;;;;;;;28.30;18.20;;;;;;;21.72;62.23;101726.91;5203902;28;20405;-51
2022/05/19 07:11:25;;;;;;;22.85;16.58;;;;;;;21.78;62.10;101736.84;5195980;28;20438;-48
2022/05/19 07:14:03;;;;;;;29.38;18.65;;;;;;;21.94;62.02;101757.16;5203453;28;20466;-48
2022/05/19 07:16:36;;;;;;;22.33;17.25;;;;;;;22.05;61.73;101737.72;5207531;28;20847;-51
2022/05/19 07:21:58;;;;;;;27.45;17.00;;;;;;;22.23;61.74;101782.91;5205033;28;21811;-51
2022/05/19 07:24:32;;;;;;;29.25;17.65;;;;;;;22.31;61.56;101771.97;5205085;28;20426;-47
2022/05/19 07:27:06;;;;;;;28.27;18.02;;;;;;;22.33;61.73;101772.59;5205139;28;20519;-50
2022/05/19 07:29:39;;;;;;;25.50;16.80;;;;;;;22.33;61.41;101756.47;5195203;28;20420;-50
2022/05/19 07:32:11;;;;;;;27.63;18.35;;;;;;;22.44;61.40;101776.53;5206267;28;20851;-53
2022/05/19 07:34:44;;;;;;;29.33;19.52;;;;;;;22.47;61.27;101785.03;5202491;28;20428;-51
2022/05/19 07:37:17;;;;;;;27.17;19.98;;;;;;;22.43;61.25;101775.72;5202257;28;20409;-51
2022/05/19 07:39:50;;;;;;;29.25;19.75;;;;;;;22.49;61.27;101766.81;5206480;28;20411;-48
2022/05/19 07:42:24;;;;;;;27.35;20.15;;;;;;;22.44;61.16;101742.38;5204912;28;21044;-52
2022/05/19 07:44:57;;;;;;;30.60;21.60;;;;;;;22.47;61.08;101728.50;5204486;28;20909;-50
2022/05/19 07:47:30;;;;;;;30.45;22.80;;;;;;;22.43;61.03;101732.66;5203087;28;20436;-50
2022/05/19 07:50:05;;;;;;;28.95;21.17;;;;;;;22.36;61.15;101723.75;5207723;28;20906;-50
2022/05/19 07:52:40;;;;;;;32.30;21.67;;;;;;;22.26;61.37;101723.31;5205391;28;20415;-50
2022/05/19 07:55:14;;;;;;;33.78;23.33;;;;;;;22.08;61.39;101700.50;5206517;28;20405;-48
2022/05/19 07:57:49;;;;;;;33.13;23.47;;;;;;;22.24;61.38;101733.47;5208621;28;20543;-44
2022/05/19 08:00:22;;;;;;;28.95;23.05;;;;;;;22.23;61.31;101745.25;5208250;28;20513;-49
2022/05/19 08:02:55;;;;;;;33.05;23.75;;;;;;;22.35;61.27;101749.00;5209926;28;20421;-49
2022/05/19 08:05:52;;;;;;;34.95;23.40;;;;;;;22.39;61.19;101763.72;5205387;28;20759;-51
2022/05/19 08:08:25;;;;;;;32.42;23.73;;;;;;;22.24;61.26;101733.47;5203184;28;20497;-47
2022/05/19 08:10:58;;;;;;;35.53;24.67;;;;;;;22.36;61.31;101755.19;5207045;28;20414;-50
2022/05/19 08:16:22;;;;;;;34.63;25.00;;;;;;;22.41;61.49;101753.53;5195064;28;20533;-51
2022/05/19 08:18:55;;;;;;;30.80;23.98;;;;;;;22.45;61.54;101749.44;5207720;28;20819;-52
2022/05/19 08:21:27;;;;;;;29.98;22.83;;;;;;;22.38;61.45;101727.03;5207116;28;20444;-51
2022/05/19 08:24:18;;;;;;;32.03;23.42;;;;;;;22.55;61.69;101754.41;5206384;28;20414;-48
2022/05/19 08:26:52;;;;;;;31.60;22.10;;;;;;;22.56;61.83;101751.50;5200416;28;20824;-52
2022/05/19 08:29:25;;;;;;;30.20;21.02;;;;;;;22.66;61.83;101755.63;5204122;28;20433;-48
2022/05/19 08:31:57;;;;;;;30.63;21.85;;;;;;;22.62;62.00;101760.59;5205869;28;20417;-49
2022/05/19 08:34:30;;;;;;;28.08;19.55;;;;;;;22.83;61.79;101782.97;5195000;28;20417;-48
2022/05/19 08:37:04;;;;;;;29.25;19.83;;;;;;;22.86;61.70;101783.38;5203629;28;20409;-49
2022/05/19 08:39:37;;;;;;;27.20;18.23;;;;;;;22.88;61.74;101784.00;5204302;28;20417;-51
2022/05/19 08:42:15;;;;;;;28.83;19.63;;;;;;;22.92;61.58;101766.41;5206125;28;20456;-52
2022/05/19 08:44:52;;;;;;;26.15;20.48;;;;;;;22.14;61.58;101641.50;5204775;28;20433;-48
2022/05/19 08:47:29;;;;;;;36.42;21.83;;;;;;;22.31;61.75;101667.03;5205273;28;20424;-52
2022/05/19 08:50:06;;;;;;;32.63;23.55;;;;;;;22.64;61.67;101704.69;5206022;28;20437;-50
2022/05/19 08:52:41;;;;;;;30.30;23.48;;;;;;;22.51;61.84;101683.97;5200687;28;20440;-48
2022/05/19 08:55:16;;;;;;;32.58;21.40;;;;;;;22.69;61.77;101694.09;5202987;28;20504;-49
2022/05/19 08:58:03;;;;;;;22.50;16.83;;;;;;;23.05;61.58;101683.91;5204516;28;20972;-54
2022/05/19 09:00:41;;;;;;;21.52;14.65;;;;;;;22.83;61.22;101606.03;5206345;28;20413;-53
2022/05/19 09:03:23;;;;;;;20.33;13.20;;;;;;;23.64;61.03;101685.53;5206278;28;20483;-53
2022/05/19 09:06:35;;;;;;;23.65;12.57;;;;;;;23.68;61.29;101673.25;5201898;28;20496;-53
2022/05/19 09:09:24;;;;;;;21.02;13.15;;;;;;;23.90;61.11;101671.06;5207773;28;20405;-53
2022/05/19 09:12:04;;;;;;;16.52;10.38;;;;;;;24.05;60.89;101658.09;5207403;28;20968;-54
2022/05/19 09:14:39;;;;;;;18.70;10.20;;;;;;;24.12;60.88;101668.84;5220863;28;20404;-55
2022/05/19 09:17:14;;;;;;;13.38;8.88;;;;;;;24.26;60.55;101673.09;5228957;28;20416;-57
2022/05/19 09:19:50;;;;;;;14.43;8.55;;;;;;;24.33;60.15;101649.56;5221427;28;20487;-56
2022/05/19 09:22:26;;;;;;;9.50;6.25;;;;;;;24.87;59.72;101681.47;5216451;28;20877;-53
2022/05/19 09:24:58;;;;;;;8.85;6.28;;;;;;;25.08;59.42;101705.34;5207930;28;20874;-52
2022/05/19 09:27:34;;;;;;;8.93;6.03;;;;;;;24.98;59.23;101694.25;5207769;28;20418;-53
2022/05/19 09:30:29;;;;;;;9.10;6.10;;;;;;;25.23;58.90;101724.75;5206613;28;20480;-54
2022/05/19 09:33:06;;;;;;;10.48;5.90;;;;;;;25.13;58.63;101683.91;5204282;28;20444;-55
2022/05/19 09:35:45;;;;;;;9.57;5.85;;;;;;;25.49;58.16;101723.63;5207615;28;20746;-54
2022/05/19 09:38:32;;;;;;;7.68;6.18;;;;;;;25.02;57.68;101630.56;5201545;28;20480;-54
2022/05/19 09:41:08;;;;;;;11.07;5.43;;;;;;;25.55;57.11;101705.66;5202892;28;20436;-54
2022/05/19 09:43:52;;;;;;;13.27;5.93;;;;;;;25.82;56.96;101705.31;5187310;28;20451;-52
2022/05/19 09:46:40;;;;;;;13.10;7.40;;;;;;;25.95;56.69;101715.94;5215966;28;20488;-49
2022/05/19 09:49:27;;;;;;;11.15;6.50;;;;;;;26.02;56.75;101716.69;5206126;28;20945;-55
2022/05/19 09:52:03;;;;;;;9.00;5.50;;;;;;;25.91;56.23;101710.16;5206276;28;20814;-54
2022/05/19 09:54:39;;;;;;;7.87;5.33;;;;;;;25.90;55.91;101707.69;5207814;28;20551;-55
2022/05/19 09:57:17;;;;;;;8.60;5.65;;;;;;;25.94;55.62;101711.59;5198663;28;20559;-52
2022/05/19 09:59:52;;;;;;;11.43;5.95;;;;;;;25.74;55.64;101696.44;5205837;28;20405;-53
2022/05/19 10:02:33;;;;;;;8.82;5.93;;;;;;;25.82;55.35;101689.06;5208936;28;20467;-55
2022/05/19 10:05:26;;;;;;;9.20;6.03;;;;;;;25.96;55.05;101687.84;5210658;28;20417;-54
2022/05/19 10:08:06;;;;;;;7.68;5.45;;;;;;;25.88;54.69;101655.69;5206457;28;20996;-54
2022/05/19 10:10:50;;;;;;;13.02;6.57;;;;;;;26.16;54.45;101668.56;5211986;28;20409;-54
2022/05/19 10:13:29;;;;;;;9.88;6.50;;;;;;;26.28;54.12;101666.69;5203030;28;20405;-54
2022/05/19 10:16:12;;;;;;;8.90;6.00;;;;;;;26.43;53.60;101666.22;5197305;28;20416;-53
2022/05/19 10:19:13;;;;;;;8.52;6.10;;;;;;;26.78;53.38;101660.81;5220162;28;20496;-53
2022/05/19 10:22:30;;;;;;;10.50;6.07;;;;;;;27.05;52.95;101650.25;5203862;28;20786;-52
2022/05/19 10:25:24;;;;;;;7.97;5.17;;;;;;;27.31;52.54;101634.53;5194747;28;20442;-49
2022/05/19 10:31:33;;;;;;;9.30;5.32;;;;;;;27.53;51.70;101638.22;5189605;28;20885;-56
2022/05/19 10:34:44;;;;;;;8.05;4.45;;;;;;;27.63;51.42;101650.31;5210691;28;20496;-51
2022/05/19 10:37:28;;;;;;;9.07;4.80;;;;;;;27.62;51.23;101656.78;5205523;28;20885;-54
2022/05/19 10:40:20;;;;;;;12.40;5.00;;;;;;;27.69;50.98;101681.91;5209844;28;20453;-54
2022/05/19 10:43:05;;;;;;;8.25;4.68;;;;;;;27.67;50.90;101700.31;5197546;28;20413;-53
2022/05/19 10:45:40;;;;;;;8.68;4.80;;;;;;;27.53;50.73;101703.34;5210581;28;20491;-49
2022/05/19 10:48:47;;;;;;;9.32;4.68;;;;;;;27.47;50.56;101722.44;5205648;28;20410;-55
2022/05/19 10:51:38;;;;;;;7.18;4.40;;;;;;;27.41;50.18;101737.81;5203044;28;20410;-51
2022/05/19 10:54:40;;;;;;;8.90;4.28;;;;;;;27.31;50.15;101743.00;5208102;28;20416;-50
2022/05/19 10:57:40;;;;;;;6.72;4.10;;;;;;;27.16;49.83;101783.38;5206052;28;20828;-50
2022/05/19 11:00:20;;;;;;;10.27;4.35;;;;;;;26.98;50.02;101828.50;5210427;28;20500;-53
2022/05/19 11:03:58;;;;;;;14.47;4.87;;;;;;;26.46;50.60;101803.91;5208718;28;20873;-51
2022/05/19 11:06:51;;;;;;;20.70;5.57;;;;;;;25.93;51.14;101816.31;5113772;28;20424;-52
2022/05/19 11:09:38;;;;;;;8.80;3.60;;;;;;;25.56;51.33;101807.38;5225821;28;20409;-48
2022/05/19 11:12:21;;;;;;;7.03;3.85;;;;;;;25.36;51.84;101828.41;5211332;28;20478;-51
2022/05/19 11:15:11;;;;;;;8.23;4.15;;;;;;;25.13;51.88;101819.06;5207815;28;20842;-48
2022/05/19 11:18:00;;;;;;;12.50;5.05;;;;;;;24.95;52.14;101806.31;5210839;28;20421;-48
2022/05/19 11:20:38;;;;;;;12.93;5.83;;;;;;;24.59;52.33;101758.44;5209082;28;20496;-50
2022/05/19 11:23:23;;;;;;;9.68;5.38;;;;;;;24.71;52.54;101802.56;5211147;28;20496;-48
2022/05/19 11:29:22;;;;;;;13.25;6.72;;;;;;;24.34;53.08;101872.63;5201799;28;20421;-46
2022/05/19 11:32:04;;;;;;;22.08;9.00;;;;;;;23.96;53.27;101863.66;5202498;28;20422;-51
2022/05/19 11:34:44;;;;;;;24.33;8.65;;;;;;;24.01;53.64;101912.41;5202904;28;20405;-50
2022/05/19 11:37:30;;;;;;;12.80;8.00;;;;;;;23.79;53.92;101920.78;5200863;28;20579;-43
2022/05/19 11:40:19;;;;;;;21.58;8.90;;;;;;;23.57;54.25;101908.53;5200842;28;20453;-48
2022/05/19 11:43:00;;;;;;;19.25;9.05;;;;;;;23.49;54.47;101923.06;5197312;28;20994;-48
2022/05/19 11:45:38;;;;;;;21.67;8.25;;;;;;;23.19;54.86;101890.31;5202464;28;20427;-48
2022/05/19 11:57:30;;;;;;;27.63;9.23;;;;;;;22.85;55.73;101927.16;5197392;28;20411;-46
2022/05/19 12:00:08;;;;;;;30.02;9.63;;;;;;;22.83;55.95;101921.16;5203504;28;20865;-48
2022/05/19 12:02:50;;;;;;;32.17;10.82;;;;;;;22.78;55.88;101911.00;5200075;28;20452;-46
2022/05/19 12:05:32;;;;;;;28.48;9.45;;;;;;;22.78;56.10;101915.56;5196308;28;20461;-50
2022/05/19 12:08:15;;;;;;;29.23;10.30;;;;;;;22.76;56.32;101907.69;5201402;28;20460;-52
2022/05/19 12:10:54;;;;;;;29.25;9.20;;;;;;;22.69;56.50;101881.78;5195766;28;20436;-50
2022/05/19 12:13:33;;;;;;;22.80;10.07;;;;;;;22.61;56.71;101871.19;5192114;28;21425;-53
2022/05/19 12:16:10;;;;;;;25.70;9.13;;;;;;;22.50;56.91;101854.59;5195164;28;20467;-52
2022/05/19 12:19:03;;;;;;;28.27;8.68;;;;;;;22.41;57.23;101855.81;5193838;28;20407;-52
2022/05/19 12:21:52;;;;;;;26.10;9.90;;;;;;;21.96;57.19;101769.38;5195983;28;20411;-48